sensor_id;sensor_type;location;lat;lon;timestamp;temperature;humidity
60848;DHT22;46681;47.696;9.140;2022-12-19T00:00:04;9.30;47.20
60848;DHT22;46681;47.696;9.140;2022-12-19T00:02:31;9.30;47.20
60848;DHT22;46681;47.696;9.140;2022-12-19T00:04:56;9.30;47.10
60848;DHT22;46681;47.696;9.140;2022-12-19T00:07:22;9.30;47.20
60848;DHT22;46681;47.696;9.140;2022-12-19T00:09:47;9.30;47.20
60848;DHT22;46681;47.696;9.140;2022-12-19T00:12:13;9.30;47.20
60848;DHT22;46681;47.696;9.140;2022-12-19T00:14:38;9.30;47.30
60848;DHT22;46681;47.696;9.140;2022-12-19T00:17:04;9.30;47.20
60848;DHT22;46681;47.696;9.140;2022-12-19T00:19:30;9.30;47.20
60848;DHT22;46681;47.696;9.140;2022-12-19T00:21:55;9.30;47.20
60848;DHT22;46681;47.696;9.140;2022-12-19T00:24:20;9.30;47.20
60848;DHT22;46681;47.696;9.140;2022-12-19T00:26:46;9.30;47.20
60848;DHT22;46681;47.696;9.140;2022-12-19T00:29:12;9.30;47.10
60848;DHT22;46681;47.696;9.140;2022-12-19T00:31:37;9.30;47.10
60848;DHT22;46681;47.696;9.140;2022-12-19T00:34:03;9.40;47.10
60848;DHT22;46681;47.696;9.140;2022-12-19T00:36:33;9.40;47.10
60848;DHT22;46681;47.696;9.140;2022-12-19T00:38:59;9.30;47.10
60848;DHT22;46681;47.696;9.140;2022-12-19T00:41:33;9.40;47.10
60848;DHT22;46681;47.696;9.140;2022-12-19T00:44:01;9.40;47.10
60848;DHT22;46681;47.696;9.140;2022-12-19T00:46:28;9.40;47.10
60848;DHT22;46681;47.696;9.140;2022-12-19T00:48:54;9.40;47.10
60848;DHT22;46681;47.696;9.140;2022-12-19T00:51:22;9.30;47.10
60848;DHT22;46681;47.696;9.140;2022-12-19T00:53:48;9.40;47.10
60848;DHT22;46681;47.696;9.140;2022-12-19T00:56:16;9.40;47.10
60848;DHT22;46681;47.696;9.140;2022-12-19T00:58:42;9.40;47.10
60848;DHT22;46681;47.696;9.140;2022-12-19T01:01:16;9.30;47.20
60848;DHT22;46681;47.696;9.140;2022-12-19T01:03:41;9.30;47.10
60848;DHT22;46681;47.696;9.140;2022-12-19T01:06:07;9.30;47.20
60848;DHT22;46681;47.696;9.140;2022-12-19T01:08:36;9.30;47.10
60848;DHT22;46681;47.696;9.140;2022-12-19T01:11:03;9.30;47.10
60848;DHT22;46681;47.696;9.140;2022-12-19T01:13:32;9.30;47.60
60848;DHT22;46681;47.696;9.140;2022-12-19T01:16:02;9.30;47.10
60848;DHT22;46681;47.696;9.140;2022-12-19T01:18:28;9.30;47.10
60848;DHT22;46681;47.696;9.140;2022-12-19T01:20:54;9.30;47.10
60848;DHT22;46681;47.696;9.140;2022-12-19T01:23:19;9.30;47.10
60848;DHT22;46681;47.696;9.140;2022-12-19T01:25:50;9.30;47.10
60848;DHT22;46681;47.696;9.140;2022-12-19T01:28:16;9.30;47.10
60848;DHT22;46681;47.696;9.140;2022-12-19T01:30:42;9.40;47.00
60848;DHT22;46681;47.696;9.140;2022-12-19T01:33:11;9.30;47.00
60848;DHT22;46681;47.696;9.140;2022-12-19T01:35:38;9.30;47.10
60848;DHT22;46681;47.696;9.140;2022-12-19T01:38:04;9.40;47.10
60848;DHT22;46681;47.696;9.140;2022-12-19T01:40:33;9.30;47.00
60848;DHT22;46681;47.696;9.140;2022-12-19T01:43:03;9.30;47.10
60848;DHT22;46681;47.696;9.140;2022-12-19T01:45:32;9.30;47.10
60848;DHT22;46681;47.696;9.140;2022-12-19T01:48:21;9.30;47.10
60848;DHT22;46681;47.696;9.140;2022-12-19T01:51:06;9.30;47.10
60848;DHT22;46681;47.696;9.140;2022-12-19T01:53:52;9.30;47.10
60848;DHT22;46681;47.696;9.140;2022-12-19T01:56:22;9.30;47.10
60848;DHT22;46681;47.696;9.140;2022-12-19T01:58:56;9.30;47.10
60848;DHT22;46681;47.696;9.140;2022-12-19T02:01:23;9.30;47.10
60848;DHT22;46681;47.696;9.140;2022-12-19T02:03:49;9.30;47.10
60848;DHT22;46681;47.696;9.140;2022-12-19T02:06:16;9.40;47.10
60848;DHT22;46681;47.696;9.140;2022-12-19T02:08:45;9.30;47.00
60848;DHT22;46681;47.696;9.140;2022-12-19T02:11:11;9.40;47.00
60848;DHT22;46681;47.696;9.140;2022-12-19T02:13:37;9.40;47.00
60848;DHT22;46681;47.696;9.140;2022-12-19T02:18:45;9.30;47.00
60848;DHT22;46681;47.696;9.140;2022-12-19T02:27:34;9.40;47.10
60848;DHT22;46681;47.696;9.140;2022-12-19T02:33:15;9.40;47.00
60848;DHT22;46681;47.696;9.140;2022-12-19T02:36:22;9.40;47.00
60848;DHT22;46681;47.696;9.140;2022-12-19T02:38:59;9.40;47.00
60848;DHT22;46681;47.696;9.140;2022-12-19T02:41:41;9.40;47.00
60848;DHT22;46681;47.696;9.140;2022-12-19T02:44:39;9.40;47.00
60848;DHT22;46681;47.696;9.140;2022-12-19T02:47:06;9.40;47.00
60848;DHT22;46681;47.696;9.140;2022-12-19T02:49:35;9.40;47.00
60848;DHT22;46681;47.696;9.140;2022-12-19T02:55:05;9.40;47.00
60848;DHT22;46681;47.696;9.140;2022-12-19T03:00:17;9.40;46.90
60848;DHT22;46681;47.696;9.140;2022-12-19T03:07:57;9.50;47.00
60848;DHT22;46681;47.696;9.140;2022-12-19T03:10:47;9.40;47.00
60848;DHT22;46681;47.696;9.140;2022-12-19T03:13:20;9.40;47.00
60848;DHT22;46681;47.696;9.140;2022-12-19T03:15:50;9.50;47.00
60848;DHT22;46681;47.696;9.140;2022-12-19T03:18:16;9.40;47.00
60848;DHT22;46681;47.696;9.140;2022-12-19T03:21:18;9.40;47.10
60848;DHT22;46681;47.696;9.140;2022-12-19T03:23:45;9.40;47.10
60848;DHT22;46681;47.696;9.140;2022-12-19T03:26:18;9.40;47.30
60848;DHT22;46681;47.696;9.140;2022-12-19T03:28:47;9.40;47.20
60848;DHT22;46681;47.696;9.140;2022-12-19T03:31:18;9.30;47.30
60848;DHT22;46681;47.696;9.140;2022-12-19T03:33:45;9.30;47.30
60848;DHT22;46681;47.696;9.140;2022-12-19T03:36:21;9.40;47.30
60848;DHT22;46681;47.696;9.140;2022-12-19T03:38:49;9.40;47.30
60848;DHT22;46681;47.696;9.140;2022-12-19T03:41:16;9.40;47.30
60848;DHT22;46681;47.696;9.140;2022-12-19T03:43:44;9.30;47.20
60848;DHT22;46681;47.696;9.140;2022-12-19T03:46:18;9.40;47.20
60848;DHT22;46681;47.696;9.140;2022-12-19T03:48:50;9.40;47.30
60848;DHT22;46681;47.696;9.140;2022-12-19T03:54:30;9.40;47.70
60848;DHT22;46681;47.696;9.140;2022-12-19T03:57:08;9.40;47.50
60848;DHT22;46681;47.696;9.140;2022-12-19T03:59:47;9.40;47.50
60848;DHT22;46681;47.696;9.140;2022-12-19T04:02:17;9.40;47.40
60848;DHT22;46681;47.696;9.140;2022-12-19T04:04:46;9.40;47.50
60848;DHT22;46681;47.696;9.140;2022-12-19T04:07:13;9.40;47.50
60848;DHT22;46681;47.696;9.140;2022-12-19T04:09:43;9.40;47.50
60848;DHT22;46681;47.696;9.140;2022-12-19T04:12:16;9.40;47.40
60848;DHT22;46681;47.696;9.140;2022-12-19T04:14:43;9.40;47.40
60848;DHT22;46681;47.696;9.140;2022-12-19T04:17:18;9.40;47.40
60848;DHT22;46681;47.696;9.140;2022-12-19T04:20:04;9.40;47.30
60848;DHT22;46681;47.696;9.140;2022-12-19T04:22:38;9.40;47.30
60848;DHT22;46681;47.696;9.140;2022-12-19T04:25:11;9.40;47.30
60848;DHT22;46681;47.696;9.140;2022-12-19T04:27:42;9.40;47.20
60848;DHT22;46681;47.696;9.140;2022-12-19T04:30:15;9.50;47.30
60848;DHT22;46681;47.696;9.140;2022-12-19T04:32:43;9.50;47.30
60848;DHT22;46681;47.696;9.140;2022-12-19T04:35:10;9.50;47.30
60848;DHT22;46681;47.696;9.140;2022-12-19T04:37:35;9.50;47.30
60848;DHT22;46681;47.696;9.140;2022-12-19T04:40:01;9.60;47.20
60848;DHT22;46681;47.696;9.140;2022-12-19T04:42:27;9.60;47.20
60848;DHT22;46681;47.696;9.140;2022-12-19T04:44:54;9.50;47.20
60848;DHT22;46681;47.696;9.140;2022-12-19T04:47:20;9.50;47.20
60848;DHT22;46681;47.696;9.140;2022-12-19T04:49:45;9.50;47.20
60848;DHT22;46681;47.696;9.140;2022-12-19T04:52:11;9.50;47.30
60848;DHT22;46681;47.696;9.140;2022-12-19T04:54:36;9.60;47.20
60848;DHT22;46681;47.696;9.140;2022-12-19T04:57:02;9.60;47.30
60848;DHT22;46681;47.696;9.140;2022-12-19T04:59:29;9.60;47.30
60848;DHT22;46681;47.696;9.140;2022-12-19T05:01:54;9.60;47.30
60848;DHT22;46681;47.696;9.140;2022-12-19T05:04:20;9.60;47.20
60848;DHT22;46681;47.696;9.140;2022-12-19T05:06:45;9.70;47.90
60848;DHT22;46681;47.696;9.140;2022-12-19T05:09:11;9.70;47.50
60848;DHT22;46681;47.696;9.140;2022-12-19T05:11:37;9.70;47.50
60848;DHT22;46681;47.696;9.140;2022-12-19T05:14:03;9.70;47.50
60848;DHT22;46681;47.696;9.140;2022-12-19T05:16:28;9.70;47.40
60848;DHT22;46681;47.696;9.140;2022-12-19T05:18:54;9.80;48.00
60848;DHT22;46681;47.696;9.140;2022-12-19T05:21:21;9.80;47.70
60848;DHT22;46681;47.696;9.140;2022-12-19T05:23:47;9.80;47.70
60848;DHT22;46681;47.696;9.140;2022-12-19T05:26:14;9.80;47.60
60848;DHT22;46681;47.696;9.140;2022-12-19T05:28:42;9.80;49.30
60848;DHT22;46681;47.696;9.140;2022-12-19T05:31:17;9.80;48.80
60848;DHT22;46681;47.696;9.140;2022-12-19T05:33:45;9.90;48.50
60848;DHT22;46681;47.696;9.140;2022-12-19T05:36:13;10.00;48.20
60848;DHT22;46681;47.696;9.140;2022-12-19T05:38:41;10.00;47.90
60848;DHT22;46681;47.696;9.140;2022-12-19T05:41:09;10.10;47.70
60848;DHT22;46681;47.696;9.140;2022-12-19T05:43:35;10.10;47.50
60848;DHT22;46681;47.696;9.140;2022-12-19T05:46:02;10.20;47.40
60848;DHT22;46681;47.696;9.140;2022-12-19T05:48:29;10.20;47.30
60848;DHT22;46681;47.696;9.140;2022-12-19T05:50:57;10.20;47.20
60848;DHT22;46681;47.696;9.140;2022-12-19T05:53:22;10.30;47.10
60848;DHT22;46681;47.696;9.140;2022-12-19T05:55:49;10.30;47.00
60848;DHT22;46681;47.696;9.140;2022-12-19T05:58:15;10.30;46.90
60848;DHT22;46681;47.696;9.140;2022-12-19T06:00:42;10.30;47.00
60848;DHT22;46681;47.696;9.140;2022-12-19T06:03:07;10.20;46.90
60848;DHT22;46681;47.696;9.140;2022-12-19T06:05:36;10.30;47.00
60848;DHT22;46681;47.696;9.140;2022-12-19T06:08:04;10.30;48.40
60848;DHT22;46681;47.696;9.140;2022-12-19T06:10:35;10.30;47.20
60848;DHT22;46681;47.696;9.140;2022-12-19T06:13:02;10.20;47.10
60848;DHT22;46681;47.696;9.140;2022-12-19T06:15:29;10.20;47.10
60848;DHT22;46681;47.696;9.140;2022-12-19T06:17:56;10.10;47.20
60848;DHT22;46681;47.696;9.140;2022-12-19T06:20:22;10.10;47.60
60848;DHT22;46681;47.696;9.140;2022-12-19T06:22:47;10.20;49.20
60848;DHT22;46681;47.696;9.140;2022-12-19T06:25:13;10.10;48.50
60848;DHT22;46681;47.696;9.140;2022-12-19T06:27:39;10.10;48.30
60848;DHT22;46681;47.696;9.140;2022-12-19T06:30:06;10.00;48.10
60848;DHT22;46681;47.696;9.140;2022-12-19T06:32:33;9.90;48.10
60848;DHT22;46681;47.696;9.140;2022-12-19T06:34:59;9.90;48.20
60848;DHT22;46681;47.696;9.140;2022-12-19T06:37:25;9.80;48.20
60848;DHT22;46681;47.696;9.140;2022-12-19T06:39:50;9.80;48.20
60848;DHT22;46681;47.696;9.140;2022-12-19T06:42:16;9.80;48.20
60848;DHT22;46681;47.696;9.140;2022-12-19T06:44:42;9.70;48.20
60848;DHT22;46681;47.696;9.140;2022-12-19T06:47:08;9.60;48.20
60848;DHT22;46681;47.696;9.140;2022-12-19T06:49:34;9.60;48.20
60848;DHT22;46681;47.696;9.140;2022-12-19T06:51:59;9.60;48.30
60848;DHT22;46681;47.696;9.140;2022-12-19T06:54:25;9.60;48.40
60848;DHT22;46681;47.696;9.140;2022-12-19T06:56:51;9.60;48.30
60848;DHT22;46681;47.696;9.140;2022-12-19T06:59:16;9.60;48.40
60848;DHT22;46681;47.696;9.140;2022-12-19T07:02:10;9.50;48.40
60848;DHT22;46681;47.696;9.140;2022-12-19T07:04:56;9.50;48.40
60848;DHT22;46681;47.696;9.140;2022-12-19T07:07:24;9.50;48.50
60848;DHT22;46681;47.696;9.140;2022-12-19T07:09:50;9.40;48.50
60848;DHT22;46681;47.696;9.140;2022-12-19T07:12:16;9.40;48.90
60848;DHT22;46681;47.696;9.140;2022-12-19T07:14:43;9.40;48.50
60848;DHT22;46681;47.696;9.140;2022-12-19T07:17:12;9.40;48.60
60848;DHT22;46681;47.696;9.140;2022-12-19T07:19:38;9.40;48.60
60848;DHT22;46681;47.696;9.140;2022-12-19T07:22:06;9.40;48.60
60848;DHT22;46681;47.696;9.140;2022-12-19T07:24:34;9.30;48.60
60848;DHT22;46681;47.696;9.140;2022-12-19T07:27:02;9.40;48.70
60848;DHT22;46681;47.696;9.140;2022-12-19T07:29:28;9.40;48.60
60848;DHT22;46681;47.696;9.140;2022-12-19T07:31:54;9.40;48.60
60848;DHT22;46681;47.696;9.140;2022-12-19T07:34:22;9.30;48.60
60848;DHT22;46681;47.696;9.140;2022-12-19T07:36:48;9.40;48.60
60848;DHT22;46681;47.696;9.140;2022-12-19T07:39:14;9.40;48.60
60848;DHT22;46681;47.696;9.140;2022-12-19T07:41:39;9.40;48.60
60848;DHT22;46681;47.696;9.140;2022-12-19T07:44:08;9.40;48.60
60848;DHT22;46681;47.696;9.140;2022-12-19T07:46:34;9.30;48.60
60848;DHT22;46681;47.696;9.140;2022-12-19T07:49:00;9.30;48.60
60848;DHT22;46681;47.696;9.140;2022-12-19T07:51:29;9.40;48.60
60848;DHT22;46681;47.696;9.140;2022-12-19T07:53:58;9.40;48.60
60848;DHT22;46681;47.696;9.140;2022-12-19T07:56:25;9.40;48.60
60848;DHT22;46681;47.696;9.140;2022-12-19T07:58:50;9.40;48.60
60848;DHT22;46681;47.696;9.140;2022-12-19T08:01:16;9.40;48.60
60848;DHT22;46681;47.696;9.140;2022-12-19T08:03:41;9.40;48.50
60848;DHT22;46681;47.696;9.140;2022-12-19T08:06:10;9.40;48.50
60848;DHT22;46681;47.696;9.140;2022-12-19T08:08:39;9.40;48.60
60848;DHT22;46681;47.696;9.140;2022-12-19T08:11:16;9.50;48.60
60848;DHT22;46681;47.696;9.140;2022-12-19T08:13:46;9.40;48.60
60848;DHT22;46681;47.696;9.140;2022-12-19T08:16:18;9.50;48.60
60848;DHT22;46681;47.696;9.140;2022-12-19T08:18:43;9.50;48.60
60848;DHT22;46681;47.696;9.140;2022-12-19T08:21:18;9.50;48.60
60848;DHT22;46681;47.696;9.140;2022-12-19T08:23:45;9.50;48.50
60848;DHT22;46681;47.696;9.140;2022-12-19T08:26:13;9.50;48.50
60848;DHT22;46681;47.696;9.140;2022-12-19T08:28:42;9.60;48.60
60848;DHT22;46681;47.696;9.140;2022-12-19T08:31:12;9.60;48.60
60848;DHT22;46681;47.696;9.140;2022-12-19T08:33:45;9.50;48.50
60848;DHT22;46681;47.696;9.140;2022-12-19T08:36:12;9.60;48.50
60848;DHT22;46681;47.696;9.140;2022-12-19T08:38:39;9.60;48.50
60848;DHT22;46681;47.696;9.140;2022-12-19T08:41:05;9.60;48.50
60848;DHT22;46681;47.696;9.140;2022-12-19T08:43:31;9.70;48.50
60848;DHT22;46681;47.696;9.140;2022-12-19T08:46:02;9.70;48.50
60848;DHT22;46681;47.696;9.140;2022-12-19T08:48:28;9.60;48.50
60848;DHT22;46681;47.696;9.140;2022-12-19T08:50:58;9.70;48.40
60848;DHT22;46681;47.696;9.140;2022-12-19T08:53:29;9.70;48.40
60848;DHT22;46681;47.696;9.140;2022-12-19T08:56:09;9.70;48.40
60848;DHT22;46681;47.696;9.140;2022-12-19T08:58:37;9.70;48.80
60848;DHT22;46681;47.696;9.140;2022-12-19T09:01:09;9.70;48.30
60848;DHT22;46681;47.696;9.140;2022-12-19T09:03:40;9.80;48.40
60848;DHT22;46681;47.696;9.140;2022-12-19T09:06:13;9.80;48.40
60848;DHT22;46681;47.696;9.140;2022-12-19T09:08:40;9.80;48.40
60848;DHT22;46681;47.696;9.140;2022-12-19T09:11:10;9.80;48.30
60848;DHT22;46681;47.696;9.140;2022-12-19T09:13:39;9.80;48.30
60848;DHT22;46681;47.696;9.140;2022-12-19T09:18:36;9.90;48.30
60848;DHT22;46681;47.696;9.140;2022-12-19T09:21:02;9.90;48.30
60848;DHT22;46681;47.696;9.140;2022-12-19T09:23:31;9.90;48.30
60848;DHT22;46681;47.696;9.140;2022-12-19T09:26:06;9.90;48.30
60848;DHT22;46681;47.696;9.140;2022-12-19T09:28:32;10.00;48.30
60848;DHT22;46681;47.696;9.140;2022-12-19T09:31:05;10.00;48.20
60848;DHT22;46681;47.696;9.140;2022-12-19T09:33:34;10.00;48.10
60848;DHT22;46681;47.696;9.140;2022-12-19T09:36:04;10.10;48.20
60848;DHT22;46681;47.696;9.140;2022-12-19T09:38:33;10.10;48.10
60848;DHT22;46681;47.696;9.140;2022-12-19T09:47:17;10.20;48.10
60848;DHT22;46681;47.696;9.140;2022-12-19T09:49:45;10.20;48.00
60848;DHT22;46681;47.696;9.140;2022-12-19T09:55:11;10.20;48.00
60848;DHT22;46681;47.696;9.140;2022-12-19T10:00:23;10.20;48.00
60848;DHT22;46681;47.696;9.140;2022-12-19T10:08:30;10.30;47.90
60848;DHT22;46681;47.696;9.140;2022-12-19T10:11:09;10.40;47.90
60848;DHT22;46681;47.696;9.140;2022-12-19T10:19:06;10.40;47.90
60848;DHT22;46681;47.696;9.140;2022-12-19T10:21:46;10.40;47.90
60848;DHT22;46681;47.696;9.140;2022-12-19T10:24:32;10.40;48.00
60848;DHT22;46681;47.696;9.140;2022-12-19T10:27:39;10.40;48.00
60848;DHT22;46681;47.696;9.140;2022-12-19T10:30:20;10.40;48.10
60848;DHT22;46681;47.696;9.140;2022-12-19T10:33:10;10.40;48.20
60848;DHT22;46681;47.696;9.140;2022-12-19T10:35:41;10.40;48.30
60848;DHT22;46681;47.696;9.140;2022-12-19T10:38:26;10.40;48.30
60848;DHT22;46681;47.696;9.140;2022-12-19T10:40:55;10.40;48.40
60848;DHT22;46681;47.696;9.140;2022-12-19T10:46:08;10.40;48.60
60848;DHT22;46681;47.696;9.140;2022-12-19T10:48:35;10.40;48.60
60848;DHT22;46681;47.696;9.140;2022-12-19T10:51:09;10.40;48.60
60848;DHT22;46681;47.696;9.140;2022-12-19T10:53:38;10.40;48.70
60848;DHT22;46681;47.696;9.140;2022-12-19T10:56:23;10.40;48.70
60848;DHT22;46681;47.696;9.140;2022-12-19T10:58:57;10.40;48.70
60848;DHT22;46681;47.696;9.140;2022-12-19T11:01:30;10.40;48.80
60848;DHT22;46681;47.696;9.140;2022-12-19T11:07:17;10.40;48.80
60848;DHT22;46681;47.696;9.140;2022-12-19T11:09:49;10.40;48.80
60848;DHT22;46681;47.696;9.140;2022-12-19T11:12:18;10.40;48.70
60848;DHT22;46681;47.696;9.140;2022-12-19T11:15:13;10.40;48.70
60848;DHT22;46681;47.696;9.140;2022-12-19T11:17:41;10.50;48.70
60848;DHT22;46681;47.696;9.140;2022-12-19T11:20:18;10.50;48.70
60848;DHT22;46681;47.696;9.140;2022-12-19T11:22:57;10.50;48.70
60848;DHT22;46681;47.696;9.140;2022-12-19T11:25:51;10.60;48.60
60848;DHT22;46681;47.696;9.140;2022-12-19T11:31:06;10.70;48.50
60848;DHT22;46681;47.696;9.140;2022-12-19T11:33:35;10.70;48.50
60848;DHT22;46681;47.696;9.140;2022-12-19T11:36:05;10.80;48.50
60848;DHT22;46681;47.696;9.140;2022-12-19T11:38:49;10.80;48.40
60848;DHT22;46681;47.696;9.140;2022-12-19T11:41:51;10.90;48.40
60848;DHT22;46681;47.696;9.140;2022-12-19T11:47:04;10.90;48.20
60848;DHT22;46681;47.696;9.140;2022-12-19T11:49:39;10.90;48.30
60848;DHT22;46681;47.696;9.140;2022-12-19T11:57:26;10.90;48.30
60848;DHT22;46681;47.696;9.140;2022-12-19T11:59:52;10.90;48.30
60848;DHT22;46681;47.696;9.140;2022-12-19T12:03:00;11.00;48.80
60848;DHT22;46681;47.696;9.140;2022-12-19T12:05:48;11.00;48.40
60848;DHT22;46681;47.696;9.140;2022-12-19T12:14:38;11.00;48.50
60848;DHT22;46681;47.696;9.140;2022-12-19T12:17:36;11.00;48.50
60848;DHT22;46681;47.696;9.140;2022-12-19T12:22:49;10.90;48.60
60848;DHT22;46681;47.696;9.140;2022-12-19T12:25:56;10.90;48.70
60848;DHT22;46681;47.696;9.140;2022-12-19T12:44:47;10.70;49.20
60848;DHT22;46681;47.696;9.140;2022-12-19T12:47:27;10.70;49.20
60848;DHT22;46681;47.696;9.140;2022-12-19T12:49:57;10.70;49.20
60848;DHT22;46681;47.696;9.140;2022-12-19T12:52:52;10.70;49.30
60848;DHT22;46681;47.696;9.140;2022-12-19T12:55:38;10.70;49.40
60848;DHT22;46681;47.696;9.140;2022-12-19T13:01:17;10.80;49.30
60848;DHT22;46681;47.696;9.140;2022-12-19T13:03:53;10.80;49.10
60848;DHT22;46681;47.696;9.140;2022-12-19T13:11:43;11.20;48.50
60848;DHT22;46681;47.696;9.140;2022-12-19T13:19:34;11.40;48.20
60848;DHT22;46681;47.696;9.140;2022-12-19T13:43:30;11.10;48.70
60848;DHT22;46681;47.696;9.140;2022-12-19T13:48:50;11.10;48.90
60848;DHT22;46681;47.696;9.140;2022-12-19T13:51:23;11.10;48.90
60848;DHT22;46681;47.696;9.140;2022-12-19T13:53:56;11.00;48.90
60848;DHT22;46681;47.696;9.140;2022-12-19T13:56:22;11.00;48.90
60848;DHT22;46681;47.696;9.140;2022-12-19T14:01:32;11.10;48.90
60848;DHT22;46681;47.696;9.140;2022-12-19T14:04:09;11.10;48.90
60848;DHT22;46681;47.696;9.140;2022-12-19T14:06:44;11.10;49.00
60848;DHT22;46681;47.696;9.140;2022-12-19T14:09:24;11.00;49.00
60848;DHT22;46681;47.696;9.140;2022-12-19T14:12:01;11.00;49.10
60848;DHT22;46681;47.696;9.140;2022-12-19T14:14:28;11.00;49.10
60848;DHT22;46681;47.696;9.140;2022-12-19T14:16:55;11.00;49.20
60848;DHT22;46681;47.696;9.140;2022-12-19T14:19:39;11.00;49.20
60848;DHT22;46681;47.696;9.140;2022-12-19T14:22:22;10.90;49.30
60848;DHT22;46681;47.696;9.140;2022-12-19T14:24:58;10.80;49.30
60848;DHT22;46681;47.696;9.140;2022-12-19T14:28:09;10.80;49.40
60848;DHT22;46681;47.696;9.140;2022-12-19T14:30:34;10.80;49.50
60848;DHT22;46681;47.696;9.140;2022-12-19T14:33:15;10.70;49.50
60848;DHT22;46681;47.696;9.140;2022-12-19T14:35:52;10.80;49.50
60848;DHT22;46681;47.696;9.140;2022-12-19T14:38:25;10.80;49.40
60848;DHT22;46681;47.696;9.140;2022-12-19T14:40:52;10.80;49.20
60848;DHT22;46681;47.696;9.140;2022-12-19T14:43:23;10.90;49.20
60848;DHT22;46681;47.696;9.140;2022-12-19T14:45:53;10.80;49.20
60848;DHT22;46681;47.696;9.140;2022-12-19T14:48:33;10.80;49.20
60848;DHT22;46681;47.696;9.140;2022-12-19T14:53:35;10.70;49.40
60848;DHT22;46681;47.696;9.140;2022-12-19T14:56:13;10.60;49.50
60848;DHT22;46681;47.696;9.140;2022-12-19T14:58:41;10.60;49.60
60848;DHT22;46681;47.696;9.140;2022-12-19T15:01:27;10.50;49.70
60848;DHT22;46681;47.696;9.140;2022-12-19T15:04:06;10.40;49.70
60848;DHT22;46681;47.696;9.140;2022-12-19T15:06:41;10.40;49.80
60848;DHT22;46681;47.696;9.140;2022-12-19T15:09:12;10.30;49.90
60848;DHT22;46681;47.696;9.140;2022-12-19T15:11:46;10.30;50.00
60848;DHT22;46681;47.696;9.140;2022-12-19T15:14:12;10.30;50.10
60848;DHT22;46681;47.696;9.140;2022-12-19T15:16:38;10.20;50.90
60848;DHT22;46681;47.696;9.140;2022-12-19T15:19:11;10.20;50.60
60848;DHT22;46681;47.696;9.140;2022-12-19T15:21:38;10.20;50.40
60848;DHT22;46681;47.696;9.140;2022-12-19T15:24:04;10.10;50.40
60848;DHT22;46681;47.696;9.140;2022-12-19T15:26:35;10.10;50.50
60848;DHT22;46681;47.696;9.140;2022-12-19T15:29:05;10.00;50.50
60848;DHT22;46681;47.696;9.140;2022-12-19T15:31:45;10.00;50.60
60848;DHT22;46681;47.696;9.140;2022-12-19T15:36:49;9.80;50.60
60848;DHT22;46681;47.696;9.140;2022-12-19T15:39:17;9.80;50.60
60848;DHT22;46681;47.696;9.140;2022-12-19T15:41:47;9.70;50.60
60848;DHT22;46681;47.696;9.140;2022-12-19T15:44:32;9.70;50.60
60848;DHT22;46681;47.696;9.140;2022-12-19T15:47:05;9.70;50.60
60848;DHT22;46681;47.696;9.140;2022-12-19T15:49:34;9.70;50.60
60848;DHT22;46681;47.696;9.140;2022-12-19T15:52:05;9.60;50.60
60848;DHT22;46681;47.696;9.140;2022-12-19T15:54:34;9.60;50.60
60848;DHT22;46681;47.696;9.140;2022-12-19T15:57:00;9.60;50.60
60848;DHT22;46681;47.696;9.140;2022-12-19T15:59:41;9.60;50.60
60848;DHT22;46681;47.696;9.140;2022-12-19T16:02:22;9.50;50.50
60848;DHT22;46681;47.696;9.140;2022-12-19T16:04:51;9.50;50.50
60848;DHT22;46681;47.696;9.140;2022-12-19T16:07:22;9.50;50.50
60848;DHT22;46681;47.696;9.140;2022-12-19T16:09:50;9.40;50.50
60848;DHT22;46681;47.696;9.140;2022-12-19T16:12:25;9.40;50.50
60848;DHT22;46681;47.696;9.140;2022-12-19T16:15:02;9.40;50.50
60848;DHT22;46681;47.696;9.140;2022-12-19T16:17:31;9.40;50.50
60848;DHT22;46681;47.696;9.140;2022-12-19T16:19:58;9.40;50.40
60848;DHT22;46681;47.696;9.140;2022-12-19T16:22:27;9.40;50.40
60848;DHT22;46681;47.696;9.140;2022-12-19T16:24:54;9.40;50.40
60848;DHT22;46681;47.696;9.140;2022-12-19T16:27:27;9.30;50.40
60848;DHT22;46681;47.696;9.140;2022-12-19T16:30:05;9.30;50.30
60848;DHT22;46681;47.696;9.140;2022-12-19T16:32:32;9.30;50.30
60848;DHT22;46681;47.696;9.140;2022-12-19T16:35:00;9.30;50.30
60848;DHT22;46681;47.696;9.140;2022-12-19T16:37:30;9.30;50.40
60848;DHT22;46681;47.696;9.140;2022-12-19T16:39:55;9.30;50.30
60848;DHT22;46681;47.696;9.140;2022-12-19T16:42:25;9.30;50.30
60848;DHT22;46681;47.696;9.140;2022-12-19T16:44:54;9.30;50.30
60848;DHT22;46681;47.696;9.140;2022-12-19T16:47:19;9.30;50.90
60848;DHT22;46681;47.696;9.140;2022-12-19T16:49:44;9.30;50.60
60848;DHT22;46681;47.696;9.140;2022-12-19T16:52:10;9.30;50.60
60848;DHT22;46681;47.696;9.140;2022-12-19T16:54:36;9.30;50.60
60848;DHT22;46681;47.696;9.140;2022-12-19T16:57:14;9.30;50.50
60848;DHT22;46681;47.696;9.140;2022-12-19T16:59:43;9.20;50.40
60848;DHT22;46681;47.696;9.140;2022-12-19T17:05:27;9.30;50.30
60848;DHT22;46681;47.696;9.140;2022-12-19T17:07:56;9.30;52.10
60848;DHT22;46681;47.696;9.140;2022-12-19T17:10:32;9.40;51.40
60848;DHT22;46681;47.696;9.140;2022-12-19T17:13:00;9.30;50.70
60848;DHT22;46681;47.696;9.140;2022-12-19T17:15:34;9.30;50.60
60848;DHT22;46681;47.696;9.140;2022-12-19T17:18:32;9.30;50.50
60848;DHT22;46681;47.696;9.140;2022-12-19T17:21:02;9.20;50.40
60848;DHT22;46681;47.696;9.140;2022-12-19T17:23:31;9.20;50.70
60848;DHT22;46681;47.696;9.140;2022-12-19T17:25:58;9.20;50.60
60848;DHT22;46681;47.696;9.140;2022-12-19T17:28:26;9.20;50.50
60848;DHT22;46681;47.696;9.140;2022-12-19T17:30:56;9.20;50.40
60848;DHT22;46681;47.696;9.140;2022-12-19T17:33:37;9.20;50.30
60848;DHT22;46681;47.696;9.140;2022-12-19T17:36:12;9.20;50.30
60848;DHT22;46681;47.696;9.140;2022-12-19T17:38:42;9.20;50.20
60848;DHT22;46681;47.696;9.140;2022-12-19T17:41:13;9.20;50.20
60848;DHT22;46681;47.696;9.140;2022-12-19T17:43:45;9.20;50.10
60848;DHT22;46681;47.696;9.140;2022-12-19T17:46:16;9.20;50.10
60848;DHT22;46681;47.696;9.140;2022-12-19T17:48:45;9.20;50.10
60848;DHT22;46681;47.696;9.140;2022-12-19T17:51:13;9.10;50.50
60848;DHT22;46681;47.696;9.140;2022-12-19T17:53:38;9.20;50.10
60848;DHT22;46681;47.696;9.140;2022-12-19T17:56:04;9.10;50.10
60848;DHT22;46681;47.696;9.140;2022-12-19T17:58:36;9.20;50.10
60848;DHT22;46681;47.696;9.140;2022-12-19T18:01:03;9.10;50.00
60848;DHT22;46681;47.696;9.140;2022-12-19T18:03:29;9.10;50.00
60848;DHT22;46681;47.696;9.140;2022-12-19T18:05:58;9.20;51.30
60848;DHT22;46681;47.696;9.140;2022-12-19T18:10:55;9.20;50.40
60848;DHT22;46681;47.696;9.140;2022-12-19T18:13:25;9.20;50.20
60848;DHT22;46681;47.696;9.140;2022-12-19T18:15:58;9.20;50.20
60848;DHT22;46681;47.696;9.140;2022-12-19T18:18:33;9.10;50.10
60848;DHT22;46681;47.696;9.140;2022-12-19T18:21:00;9.10;50.10
60848;DHT22;46681;47.696;9.140;2022-12-19T18:23:26;9.10;50.10
60848;DHT22;46681;47.696;9.140;2022-12-19T18:25:53;9.10;50.00
60848;DHT22;46681;47.696;9.140;2022-12-19T18:28:20;9.10;50.00
60848;DHT22;46681;47.696;9.140;2022-12-19T18:30:46;9.10;50.00